sensor_id;sensor_type;location;lat;lon;timestamp;pressure;altitude;pressure_sealevel;temperature;humidity
12219;BME280;6172;42.646;23.344;2023-05-29T00:00:32;94422.97;;;12.47;100.00
12219;BME280;6172;42.646;23.344;2023-05-29T00:03:00;94409.03;;;12.41;100.00
12219;BME280;6172;42.646;23.344;2023-05-29T00:05:27;94417.94;;;12.45;100.00
12219;BME280;6172;42.646;23.344;2023-05-29T00:07:55;94418.69;;;12.46;100.00
12219;BME280;6172;42.646;23.344;2023-05-29T00:10:22;94412.13;;;12.43;100.00
12219;BME280;6172;42.646;23.344;2023-05-29T00:12:49;94414.50;;;12.41;100.00
12219;BME280;6172;42.646;23.344;2023-05-29T00:15:19;94411.13;;;12.37;100.00
12219;BME280;6172;42.646;23.344;2023-05-29T00:17:46;94418.88;;;12.39;100.00
12219;BME280;6172;42.646;23.344;2023-05-29T00:20:13;94425.41;;;12.29;100.00
12219;BME280;6172;42.646;23.344;2023-05-29T00:22:40;94427.69;;;12.30;100.00
12219;BME280;6172;42.646;23.344;2023-05-29T00:25:08;94425.16;;;12.23;100.00
12219;BME280;6172;42.646;23.344;2023-05-29T00:27:35;94419.28;;;12.09;100.00
12219;BME280;6172;42.646;23.344;2023-05-29T00:30:03;94423.81;;;12.15;100.00
12219;BME280;6172;42.646;23.344;2023-05-29T00:32:31;94422.69;;;12.13;100.00
12219;BME280;6172;42.646;23.344;2023-05-29T00:34:58;94424.88;;;12.05;100.00
12219;BME280;6172;42.646;23.344;2023-05-29T00:37:25;94426.91;;;12.01;100.00
12219;BME280;6172;42.646;23.344;2023-05-29T00:39:52;94422.03;;;12.09;100.00
12219;BME280;6172;42.646;23.344;2023-05-29T00:42:20;94424.25;;;11.98;100.00
12219;BME280;6172;42.646;23.344;2023-05-29T00:44:47;94429.63;;;12.01;100.00
12219;BME280;6172;42.646;23.344;2023-05-29T00:47:14;94425.72;;;12.02;100.00
12219;BME280;6172;42.646;23.344;2023-05-29T00:49:42;94416.31;;;12.03;100.00
12219;BME280;6172;42.646;23.344;2023-05-29T00:52:09;94417.34;;;12.09;100.00
12219;BME280;6172;42.646;23.344;2023-05-29T00:54:37;94413.25;;;12.01;100.00
12219;BME280;6172;42.646;23.344;2023-05-29T00:57:05;94418.81;;;11.98;100.00
12219;BME280;6172;42.646;23.344;2023-05-29T00:59:34;94419.72;;;11.91;100.00
12219;BME280;6172;42.646;23.344;2023-05-29T01:02:02;94423.50;;;11.97;100.00
12219;BME280;6172;42.646;23.344;2023-05-29T01:04:29;94411.28;;;12.02;100.00
12219;BME280;6172;42.646;23.344;2023-05-29T01:06:59;94414.88;;;11.99;100.00
12219;BME280;6172;42.646;23.344;2023-05-29T01:09:28;94414.00;;;12.02;100.00
12219;BME280;6172;42.646;23.344;2023-05-29T01:12:02;94411.38;;;11.98;100.00
12219;BME280;6172;42.646;23.344;2023-05-29T01:14:41;94412.56;;;11.97;100.00
12219;BME280;6172;42.646;23.344;2023-05-29T01:17:17;94404.81;;;11.96;100.00
12219;BME280;6172;42.646;23.344;2023-05-29T01:20:00;94419.22;;;11.96;100.00
12219;BME280;6172;42.646;23.344;2023-05-29T01:22:39;94418.69;;;12.01;100.00
12219;BME280;6172;42.646;23.344;2023-05-29T01:25:11;94426.22;;;11.97;100.00
12219;BME280;6172;42.646;23.344;2023-05-29T01:27:46;94423.84;;;11.83;100.00
12219;BME280;6172;42.646;23.344;2023-05-29T01:30:15;94417.28;;;11.65;100.00
12219;BME280;6172;42.646;23.344;2023-05-29T01:32:42;94419.91;;;11.52;100.00
12219;BME280;6172;42.646;23.344;2023-05-29T01:35:09;94421.63;;;11.46;100.00
12219;BME280;6172;42.646;23.344;2023-05-29T01:37:36;94425.03;;;11.50;100.00
12219;BME280;6172;42.646;23.344;2023-05-29T01:40:04;94417.19;;;11.52;100.00
12219;BME280;6172;42.646;23.344;2023-05-29T01:42:32;94418.22;;;11.58;100.00
12219;BME280;6172;42.646;23.344;2023-05-29T01:45:01;94419.78;;;11.59;100.00
12219;BME280;6172;42.646;23.344;2023-05-29T01:47:31;94410.88;;;11.55;100.00
12219;BME280;6172;42.646;23.344;2023-05-29T01:49:59;94414.63;;;11.61;100.00
12219;BME280;6172;42.646;23.344;2023-05-29T01:52:28;94421.97;;;11.48;100.00
12219;BME280;6172;42.646;23.344;2023-05-29T01:54:56;94429.97;;;11.55;100.00
12219;BME280;6172;42.646;23.344;2023-05-29T01:57:23;94428.53;;;11.51;100.00
12219;BME280;6172;42.646;23.344;2023-05-29T01:59:50;94421.78;;;11.55;100.00
12219;BME280;6172;42.646;23.344;2023-05-29T02:02:21;94428.19;;;11.49;100.00
12219;BME280;6172;42.646;23.344;2023-05-29T02:04:48;94425.63;;;11.42;100.00
12219;BME280;6172;42.646;23.344;2023-05-29T02:07:17;94417.94;;;11.37;100.00
12219;BME280;6172;42.646;23.344;2023-05-29T02:09:44;94423.75;;;11.39;100.00
12219;BME280;6172;42.646;23.344;2023-05-29T02:12:12;94433.41;;;11.43;100.00
12219;BME280;6172;42.646;23.344;2023-05-29T02:14:38;94420.06;;;11.45;100.00
12219;BME280;6172;42.646;23.344;2023-05-29T02:17:06;94431.34;;;11.47;100.00
12219;BME280;6172;42.646;23.344;2023-05-29T02:19:36;94417.19;;;11.52;100.00
12219;BME280;6172;42.646;23.344;2023-05-29T02:22:03;94408.06;;;11.59;100.00
12219;BME280;6172;42.646;23.344;2023-05-29T02:24:31;94414.31;;;11.59;100.00
12219;BME280;6172;42.646;23.344;2023-05-29T02:26:57;94410.72;;;11.46;100.00
12219;BME280;6172;42.646;23.344;2023-05-29T02:29:24;94404.31;;;11.53;100.00
12219;BME280;6172;42.646;23.344;2023-05-29T02:31:51;94418.38;;;11.51;100.00
12219;BME280;6172;42.646;23.344;2023-05-29T02:34:18;94426.16;;;11.53;100.00
12219;BME280;6172;42.646;23.344;2023-05-29T02:36:49;94432.28;;;11.57;100.00
12219;BME280;6172;42.646;23.344;2023-05-29T02:39:17;94426.06;;;11.56;100.00
12219;BME280;6172;42.646;23.344;2023-05-29T02:41:45;94432.47;;;11.66;100.00
12219;BME280;6172;42.646;23.344;2023-05-29T02:44:12;94427.44;;;11.64;100.00
12219;BME280;6172;42.646;23.344;2023-05-29T02:46:38;94433.25;;;11.66;100.00
12219;BME280;6172;42.646;23.344;2023-05-29T02:49:05;94427.25;;;11.71;100.00
12219;BME280;6172;42.646;23.344;2023-05-29T02:51:33;94432.97;;;11.77;100.00
12219;BME280;6172;42.646;23.344;2023-05-29T02:54:01;94416.69;;;11.73;100.00
12219;BME280;6172;42.646;23.344;2023-05-29T02:56:29;94427.84;;;11.79;100.00
12219;BME280;6172;42.646;23.344;2023-05-29T02:58:56;94423.06;;;11.83;100.00
12219;BME280;6172;42.646;23.344;2023-05-29T03:01:23;94429.50;;;11.76;100.00
12219;BME280;6172;42.646;23.344;2023-05-29T03:03:50;94433.31;;;11.79;100.00
12219;BME280;6172;42.646;23.344;2023-05-29T03:06:18;94420.44;;;11.79;100.00
12219;BME280;6172;42.646;23.344;2023-05-29T03:08:45;94439.97;;;11.78;100.00
12219;BME280;6172;42.646;23.344;2023-05-29T03:11:13;94435.19;;;11.66;100.00
12219;BME280;6172;42.646;23.344;2023-05-29T03:13:41;94428.69;;;11.60;100.00
12219;BME280;6172;42.646;23.344;2023-05-29T03:16:08;94429.97;;;11.55;100.00
12219;BME280;6172;42.646;23.344;2023-05-29T03:18:35;94441.69;;;11.72;100.00
12219;BME280;6172;42.646;23.344;2023-05-29T03:21:02;94429.66;;;11.69;100.00
12219;BME280;6172;42.646;23.344;2023-05-29T03:23:30;94433.25;;;11.82;100.00
12219;BME280;6172;42.646;23.344;2023-05-29T03:25:57;94429.13;;;11.90;100.00
12219;BME280;6172;42.646;23.344;2023-05-29T03:28:25;94436.97;;;11.88;100.00
12219;BME280;6172;42.646;23.344;2023-05-29T03:30:52;94433.13;;;12.02;100.00
12219;BME280;6172;42.646;23.344;2023-05-29T03:33:19;94437.63;;;12.08;100.00
12219;BME280;6172;42.646;23.344;2023-05-29T03:35:46;94443.47;;;11.94;100.00
12219;BME280;6172;42.646;23.344;2023-05-29T03:38:13;94441.41;;;11.98;100.00
12219;BME280;6172;42.646;23.344;2023-05-29T03:40:40;94443.97;;;12.05;100.00
12219;BME280;6172;42.646;23.344;2023-05-29T03:43:07;94450.78;;;12.13;100.00
12219;BME280;6172;42.646;23.344;2023-05-29T03:45:36;94459.34;;;12.15;100.00
12219;BME280;6172;42.646;23.344;2023-05-29T03:48:02;94455.47;;;12.29;100.00
12219;BME280;6172;42.646;23.344;2023-05-29T03:50:30;94460.63;;;12.11;100.00
12219;BME280;6172;42.646;23.344;2023-05-29T03:52:56;94471.44;;;12.30;100.00
12219;BME280;6172;42.646;23.344;2023-05-29T03:55:25;94462.56;;;12.26;100.00
12219;BME280;6172;42.646;23.344;2023-05-29T03:57:52;94463.22;;;12.30;100.00
12219;BME280;6172;42.646;23.344;2023-05-29T04:00:19;94473.13;;;12.40;100.00
12219;BME280;6172;42.646;23.344;2023-05-29T04:02:47;94469.53;;;12.59;100.00
12219;BME280;6172;42.646;23.344;2023-05-29T04:05:14;94467.78;;;12.65;100.00
12219;BME280;6172;42.646;23.344;2023-05-29T04:07:41;94468.06;;;12.84;100.00
12219;BME280;6172;42.646;23.344;2023-05-29T04:10:09;94472.16;;;12.92;100.00
12219;BME280;6172;42.646;23.344;2023-05-29T04:12:36;94460.91;;;13.02;100.00
12219;BME280;6172;42.646;23.344;2023-05-29T04:15:04;94463.91;;;13.20;100.00
12219;BME280;6172;42.646;23.344;2023-05-29T04:17:32;94453.84;;;13.30;100.00
12219;BME280;6172;42.646;23.344;2023-05-29T04:20:00;94466.44;;;13.40;100.00
12219;BME280;6172;42.646;23.344;2023-05-29T04:22:34;94465.34;;;13.37;100.00
12219;BME280;6172;42.646;23.344;2023-05-29T04:25:01;94463.81;;;13.49;100.00
12219;BME280;6172;42.646;23.344;2023-05-29T04:27:29;94450.03;;;13.65;100.00
12219;BME280;6172;42.646;23.344;2023-05-29T04:29:57;94451.00;;;13.58;100.00
12219;BME280;6172;42.646;23.344;2023-05-29T04:32:24;94460.22;;;13.64;100.00
12219;BME280;6172;42.646;23.344;2023-05-29T04:34:51;94455.84;;;13.67;100.00
12219;BME280;6172;42.646;23.344;2023-05-29T04:37:20;94450.78;;;13.65;100.00
12219;BME280;6172;42.646;23.344;2023-05-29T04:39:56;94465.91;;;13.57;100.00
12219;BME280;6172;42.646;23.344;2023-05-29T04:42:23;94474.28;;;13.66;100.00
12219;BME280;6172;42.646;23.344;2023-05-29T04:44:50;94470.28;;;13.55;100.00
12219;BME280;6172;42.646;23.344;2023-05-29T04:47:18;94462.94;;;13.64;100.00
12219;BME280;6172;42.646;23.344;2023-05-29T04:49:45;94473.03;;;13.80;100.00
12219;BME280;6172;42.646;23.344;2023-05-29T04:52:14;94468.59;;;14.20;100.00
12219;BME280;6172;42.646;23.344;2023-05-29T04:54:43;94467.28;;;14.58;100.00
12219;BME280;6172;42.646;23.344;2023-05-29T04:57:10;94461.44;;;14.69;100.00
12219;BME280;6172;42.646;23.344;2023-05-29T04:59:37;94466.88;;;14.94;100.00
12219;BME280;6172;42.646;23.344;2023-05-29T05:02:04;94465.38;;;15.02;100.00
12219;BME280;6172;42.646;23.344;2023-05-29T05:04:31;94468.94;;;14.90;100.00
12219;BME280;6172;42.646;23.344;2023-05-29T05:06:58;94473.16;;;14.82;100.00
12219;BME280;6172;42.646;23.344;2023-05-29T05:09:25;94478.53;;;14.85;100.00
12219;BME280;6172;42.646;23.344;2023-05-29T05:11:54;94472.09;;;15.01;100.00
12219;BME280;6172;42.646;23.344;2023-05-29T05:14:22;94473.25;;;15.13;100.00
12219;BME280;6172;42.646;23.344;2023-05-29T05:16:50;94487.25;;;15.36;100.00
12219;BME280;6172;42.646;23.344;2023-05-29T05:19:17;94483.94;;;15.41;100.00
12219;BME280;6172;42.646;23.344;2023-05-29T05:21:45;94479.47;;;15.65;100.00
12219;BME280;6172;42.646;23.344;2023-05-29T05:24:12;94482.34;;;15.83;100.00
12219;BME280;6172;42.646;23.344;2023-05-29T05:26:39;94474.31;;;15.67;100.00
12219;BME280;6172;42.646;23.344;2023-05-29T05:29:07;94478.47;;;16.11;100.00
12219;BME280;6172;42.646;23.344;2023-05-29T05:31:35;94478.00;;;16.13;100.00
12219;BME280;6172;42.646;23.344;2023-05-29T05:34:04;94474.22;;;16.28;100.00
12219;BME280;6172;42.646;23.344;2023-05-29T05:36:32;94464.63;;;16.33;100.00
12219;BME280;6172;42.646;23.344;2023-05-29T05:38:59;94468.28;;;15.81;100.00
12219;BME280;6172;42.646;23.344;2023-05-29T05:41:25;94458.28;;;16.05;100.00
12219;BME280;6172;42.646;23.344;2023-05-29T05:43:53;94458.47;;;16.20;100.00
12219;BME280;6172;42.646;23.344;2023-05-29T05:46:22;94467.50;;;16.20;100.00
12219;BME280;6172;42.646;23.344;2023-05-29T05:48:49;94463.72;;;16.36;100.00
12219;BME280;6172;42.646;23.344;2023-05-29T05:51:17;94468.50;;;16.71;100.00
12219;BME280;6172;42.646;23.344;2023-05-29T05:53:44;94469.59;;;17.01;100.00
12219;BME280;6172;42.646;23.344;2023-05-29T05:56:12;94464.13;;;17.70;100.00
12219;BME280;6172;42.646;23.344;2023-05-29T05:58:38;94459.13;;;18.95;100.00
12219;BME280;6172;42.646;23.344;2023-05-29T06:01:07;94461.44;;;20.27;100.00
12219;BME280;6172;42.646;23.344;2023-05-29T06:03:36;94462.38;;;20.04;100.00
12219;BME280;6172;42.646;23.344;2023-05-29T06:06:04;94456.34;;;19.77;100.00
12219;BME280;6172;42.646;23.344;2023-05-29T06:08:31;94460.81;;;18.54;100.00
12219;BME280;6172;42.646;23.344;2023-05-29T06:10:58;94452.84;;;18.56;100.00
12219;BME280;6172;42.646;23.344;2023-05-29T06:13:25;94462.25;;;18.17;100.00
12219;BME280;6172;42.646;23.344;2023-05-29T06:15:52;94458.44;;;18.15;100.00
12219;BME280;6172;42.646;23.344;2023-05-29T06:18:19;94462.66;;;18.25;100.00
12219;BME280;6172;42.646;23.344;2023-05-29T06:20:47;94461.09;;;19.18;100.00
12219;BME280;6172;42.646;23.344;2023-05-29T06:23:15;94469.00;;;20.12;100.00
12219;BME280;6172;42.646;23.344;2023-05-29T06:25:42;94458.59;;;20.76;100.00
12219;BME280;6172;42.646;23.344;2023-05-29T06:28:09;94462.88;;;21.17;96.15
12219;BME280;6172;42.646;23.344;2023-05-29T06:30:36;94464.31;;;20.53;100.00
12219;BME280;6172;42.646;23.344;2023-05-29T06:33:04;94471.19;;;20.77;100.00
12219;BME280;6172;42.646;23.344;2023-05-29T06:35:32;94463.13;;;19.90;100.00
12219;BME280;6172;42.646;23.344;2023-05-29T06:38:00;94466.28;;;19.54;100.00
12219;BME280;6172;42.646;23.344;2023-05-29T06:40:27;94464.84;;;19.73;100.00
12219;BME280;6172;42.646;23.344;2023-05-29T06:42:53;94472.56;;;19.54;100.00
12219;BME280;6172;42.646;23.344;2023-05-29T06:45:20;94474.38;;;19.43;100.00
12219;BME280;6172;42.646;23.344;2023-05-29T06:47:47;94465.25;;;20.30;100.00
12219;BME280;6172;42.646;23.344;2023-05-29T06:50:14;94465.47;;;20.46;100.00
12219;BME280;6172;42.646;23.344;2023-05-29T06:52:41;94461.03;;;21.54;95.89
12219;BME280;6172;42.646;23.344;2023-05-29T06:55:09;94458.47;;;21.77;89.61
12219;BME280;6172;42.646;23.344;2023-05-29T06:57:36;94448.56;;;22.74;80.01
12219;BME280;6172;42.646;23.344;2023-05-29T07:00:04;94457.22;;;22.09;79.68
12219;BME280;6172;42.646;23.344;2023-05-29T07:02:35;94468.78;;;21.50;87.61
12219;BME280;6172;42.646;23.344;2023-05-29T07:05:02;94459.91;;;21.21;88.89
12219;BME280;6172;42.646;23.344;2023-05-29T07:07:28;94459.56;;;21.13;90.84
12219;BME280;6172;42.646;23.344;2023-05-29T07:09:55;94473.25;;;19.64;100.00
12219;BME280;6172;42.646;23.344;2023-05-29T07:12:23;94472.78;;;19.13;100.00
12219;BME280;6172;42.646;23.344;2023-05-29T07:14:51;94469.41;;;18.94;100.00
12219;BME280;6172;42.646;23.344;2023-05-29T07:17:18;94470.25;;;18.86;100.00
12219;BME280;6172;42.646;23.344;2023-05-29T07:19:45;94476.94;;;18.94;100.00
12219;BME280;6172;42.646;23.344;2023-05-29T07:22:12;94459.78;;;18.90;100.00
12219;BME280;6172;42.646;23.344;2023-05-29T07:24:39;94475.84;;;19.15;100.00
12219;BME280;6172;42.646;23.344;2023-05-29T07:27:06;94470.50;;;19.11;100.00
12219;BME280;6172;42.646;23.344;2023-05-29T07:29:34;94470.66;;;19.31;100.00
12219;BME280;6172;42.646;23.344;2023-05-29T07:32:02;94469.63;;;19.43;100.00
12219;BME280;6172;42.646;23.344;2023-05-29T07:34:28;94464.31;;;20.53;100.00
12219;BME280;6172;42.646;23.344;2023-05-29T07:36:57;94464.97;;;20.82;100.00
12219;BME280;6172;42.646;23.344;2023-05-29T07:39:24;94460.34;;;20.39;100.00
12219;BME280;6172;42.646;23.344;2023-05-29T07:41:51;94467.28;;;20.15;100.00
12219;BME280;6172;42.646;23.344;2023-05-29T07:44:18;94477.06;;;19.52;100.00
12219;BME280;6172;42.646;23.344;2023-05-29T07:46:46;94470.56;;;19.55;100.00
12219;BME280;6172;42.646;23.344;2023-05-29T07:49:13;94464.50;;;19.13;100.00
12219;BME280;6172;42.646;23.344;2023-05-29T07:51:40;94467.41;;;18.95;100.00
12219;BME280;6172;42.646;23.344;2023-05-29T07:54:07;94466.28;;;18.63;100.00
12219;BME280;6172;42.646;23.344;2023-05-29T07:56:34;94461.16;;;18.71;100.00
12219;BME280;6172;42.646;23.344;2023-05-29T07:59:01;94459.19;;;18.48;100.00
12219;BME280;6172;42.646;23.344;2023-05-29T08:01:28;94469.31;;;18.65;100.00
12219;BME280;6172;42.646;23.344;2023-05-29T08:03:57;94466.84;;;18.44;100.00
12219;BME280;6172;42.646;23.344;2023-05-29T08:06:24;94456.22;;;18.28;100.00
12219;BME280;6172;42.646;23.344;2023-05-29T08:08:50;94470.81;;;18.52;100.00
12219;BME280;6172;42.646;23.344;2023-05-29T08:11:18;94469.44;;;18.47;100.00
12219;BME280;6172;42.646;23.344;2023-05-29T08:13:45;94467.31;;;18.66;100.00
12219;BME280;6172;42.646;23.344;2023-05-29T08:16:12;94476.53;;;18.86;100.00
12219;BME280;6172;42.646;23.344;2023-05-29T08:18:41;94469.88;;;18.55;100.00
12219;BME280;6172;42.646;23.344;2023-05-29T08:21:09;94471.47;;;18.38;100.00
12219;BME280;6172;42.646;23.344;2023-05-29T08:23:37;94479.44;;;18.45;100.00
12219;BME280;6172;42.646;23.344;2023-05-29T08:26:04;94471.63;;;18.43;100.00
12219;BME280;6172;42.646;23.344;2023-05-29T08:28:31;94476.25;;;18.61;100.00
12219;BME280;6172;42.646;23.344;2023-05-29T08:30:58;94471.03;;;18.86;100.00
12219;BME280;6172;42.646;23.344;2023-05-29T08:33:24;94472.56;;;19.69;100.00
12219;BME280;6172;42.646;23.344;2023-05-29T08:35:51;94477.69;;;20.54;100.00
12219;BME280;6172;42.646;23.344;2023-05-29T08:38:19;94480.28;;;20.23;100.00
12219;BME280;6172;42.646;23.344;2023-05-29T08:40:47;94467.78;;;20.13;100.00
12219;BME280;6172;42.646;23.344;2023-05-29T08:43:16;94461.78;;;19.27;100.00
12219;BME280;6172;42.646;23.344;2023-05-29T08:45:47;94464.38;;;19.60;100.00
12219;BME280;6172;42.646;23.344;2023-05-29T08:48:19;94456.31;;;20.75;100.00
12219;BME280;6172;42.646;23.344;2023-05-29T08:50:51;94447.34;;;21.25;97.86
12219;BME280;6172;42.646;23.344;2023-05-29T08:53:21;94451.97;;;20.88;97.25
12219;BME280;6172;42.646;23.344;2023-05-29T08:55:50;94452.97;;;20.71;100.00
12219;BME280;6172;42.646;23.344;2023-05-29T08:58:18;94439.47;;;20.04;100.00
12219;BME280;6172;42.646;23.344;2023-05-29T09:00:46;94443.31;;;20.46;100.00
12219;BME280;6172;42.646;23.344;2023-05-29T09:03:14;94447.09;;;19.94;100.00
12219;BME280;6172;42.646;23.344;2023-05-29T09:05:41;94455.09;;;19.92;100.00
12219;BME280;6172;42.646;23.344;2023-05-29T09:08:10;94442.22;;;19.89;100.00
12219;BME280;6172;42.646;23.344;2023-05-29T09:10:40;94447.50;;;19.73;100.00
12219;BME280;6172;42.646;23.344;2023-05-29T09:13:07;94436.38;;;19.52;100.00
12219;BME280;6172;42.646;23.344;2023-05-29T09:15:35;94447.75;;;19.89;100.00
12219;BME280;6172;42.646;23.344;2023-05-29T09:18:05;94441.47;;;19.89;100.00
12219;BME280;6172;42.646;23.344;2023-05-29T09:20:34;94437.66;;;19.86;100.00
12219;BME280;6172;42.646;23.344;2023-05-29T09:23:03;94420.75;;;19.99;100.00
12219;BME280;6172;42.646;23.344;2023-05-29T09:25:31;94422.00;;;20.32;97.00
12219;BME280;6172;42.646;23.344;2023-05-29T09:28:01;94413.59;;;20.41;89.27
12219;BME280;6172;42.646;23.344;2023-05-29T09:30:34;94427.69;;;20.23;89.65
12219;BME280;6172;42.646;23.344;2023-05-29T09:33:03;94413.91;;;20.83;90.93
12219;BME280;6172;42.646;23.344;2023-05-29T09:35:37;94415.41;;;21.55;72.90
12219;BME280;6172;42.646;23.344;2023-05-29T09:38:05;94407.72;;;21.70;72.81
12219;BME280;6172;42.646;23.344;2023-05-29T09:40:36;94402.06;;;21.34;75.08
12219;BME280;6172;42.646;23.344;2023-05-29T09:43:09;94400.81;;;21.35;75.77
12219;BME280;6172;42.646;23.344;2023-05-29T09:45:37;94397.38;;;20.74;73.66
12219;BME280;6172;42.646;23.344;2023-05-29T09:48:07;94401.41;;;20.93;69.80
12219;BME280;6172;42.646;23.344;2023-05-29T09:50:34;94400.59;;;20.87;75.68
12219;BME280;6172;42.646;23.344;2023-05-29T09:53:01;94395.16;;;20.78;78.12
12219;BME280;6172;42.646;23.344;2023-05-29T09:55:30;94390.66;;;21.01;79.58
12219;BME280;6172;42.646;23.344;2023-05-29T09:57:59;94397.03;;;20.87;82.83
12219;BME280;6172;42.646;23.344;2023-05-29T10:00:29;94386.03;;;20.72;84.09
12219;BME280;6172;42.646;23.344;2023-05-29T10:02:56;94394.22;;;20.41;85.88
12219;BME280;6172;42.646;23.344;2023-05-29T10:05:23;94390.94;;;19.88;93.83
12219;BME280;6172;42.646;23.344;2023-05-29T10:07:53;94395.44;;;19.71;95.00
12219;BME280;6172;42.646;23.344;2023-05-29T10:10:21;94396.28;;;19.77;97.60
12219;BME280;6172;42.646;23.344;2023-05-29T10:12:53;94395.00;;;19.93;92.51
12219;BME280;6172;42.646;23.344;2023-05-29T10:15:24;94390.81;;;20.52;87.50
12219;BME280;6172;42.646;23.344;2023-05-29T10:18:02;94385.72;;;21.36;80.34
12219;BME280;6172;42.646;23.344;2023-05-29T10:20:30;94395.78;;;21.33;71.48
12219;BME280;6172;42.646;23.344;2023-05-29T10:23:00;94389.94;;;20.80;74.70
12219;BME280;6172;42.646;23.344;2023-05-29T10:25:29;94386.25;;;20.89;73.97
12219;BME280;6172;42.646;23.344;2023-05-29T10:27:58;94376.97;;;21.17;68.74
12219;BME280;6172;42.646;23.344;2023-05-29T10:30:30;94368.69;;;21.74;62.96
12219;BME280;6172;42.646;23.344;2023-05-29T10:33:29;94362.94;;;21.89;61.72
12219;BME280;6172;42.646;23.344;2023-05-29T10:36:07;94365.97;;;21.85;62.39
12219;BME280;6172;42.646;23.344;2023-05-29T10:38:37;94369.44;;;21.18;68.56
12219;BME280;6172;42.646;23.344;2023-05-29T10:41:31;94379.59;;;20.81;74.63
12219;BME280;6172;42.646;23.344;2023-05-29T10:47:23;94380.66;;;20.43;82.09
12219;BME280;6172;42.646;23.344;2023-05-29T10:49:52;94379.13;;;20.42;81.56
12219;BME280;6172;42.646;23.344;2023-05-29T10:52:19;94375.75;;;19.84;89.44
12219;BME280;6172;42.646;23.344;2023-05-29T10:54:51;94380.22;;;19.61;100.00
12219;BME280;6172;42.646;23.344;2023-05-29T10:57:21;94370.94;;;19.79;100.00
12219;BME280;6172;42.646;23.344;2023-05-29T10:59:58;94378.53;;;19.84;93.97
12219;BME280;6172;42.646;23.344;2023-05-29T11:02:26;94373.31;;;19.71;95.61
12219;BME280;6172;42.646;23.344;2023-05-29T11:05:20;94372.75;;;19.67;100.00
12219;BME280;6172;42.646;23.344;2023-05-29T11:07:51;94367.06;;;19.41;100.00
12219;BME280;6172;42.646;23.344;2023-05-29T11:10:41;94354.09;;;19.18;100.00
12219;BME280;6172;42.646;23.344;2023-05-29T11:13:08;94364.50;;;19.23;100.00
12219;BME280;6172;42.646;23.344;2023-05-29T11:15:36;94363.63;;;19.46;100.00
12219;BME280;6172;42.646;23.344;2023-05-29T11:18:07;94360.72;;;19.70;100.00
12219;BME280;6172;42.646;23.344;2023-05-29T11:20:43;94362.06;;;20.09;100.00
12219;BME280;6172;42.646;23.344;2023-05-29T11:23:15;94349.97;;;20.47;100.00
12219;BME280;6172;42.646;23.344;2023-05-29T11:25:44;94343.13;;;20.42;100.00
12219;BME280;6172;42.646;23.344;2023-05-29T11:28:11;94338.16;;;20.66;100.00
12219;BME280;6172;42.646;23.344;2023-05-29T11:30:43;94342.13;;;20.85;100.00
12219;BME280;6172;42.646;23.344;2023-05-29T11:33:19;94332.78;;;21.08;97.09
12219;BME280;6172;42.646;23.344;2023-05-29T11:35:51;94341.47;;;21.21;98.61
12219;BME280;6172;42.646;23.344;2023-05-29T11:38:21;94345.88;;;21.33;96.47
12219;BME280;6172;42.646;23.344;2023-05-29T11:40:48;94331.03;;;21.36;92.28
12219;BME280;6172;42.646;23.344;2023-05-29T11:43:15;94332.19;;;21.24;90.34
12219;BME280;6172;42.646;23.344;2023-05-29T11:45:42;94331.38;;;20.93;93.42
12219;BME280;6172;42.646;23.344;2023-05-29T11:48:08;94322.59;;;20.74;91.75
12219;BME280;6172;42.646;23.344;2023-05-29T11:50:36;94322.53;;;20.43;98.36
12219;BME280;6172;42.646;23.344;2023-05-29T11:53:06;94324.72;;;20.19;93.14
12219;BME280;6172;42.646;23.344;2023-05-29T11:55:34;94337.56;;;20.02;94.18
12219;BME280;6172;42.646;23.344;2023-05-29T11:58:02;94360.19;;;19.22;100.00
12219;BME280;6172;42.646;23.344;2023-05-29T12:00:34;94363.59;;;17.89;100.00
12219;BME280;6172;42.646;23.344;2023-05-29T12:03:01;94363.94;;;16.80;100.00
12219;BME280;6172;42.646;23.344;2023-05-29T12:05:30;94373.72;;;16.27;100.00
12219;BME280;6172;42.646;23.344;2023-05-29T12:07:58;94388.81;;;16.05;100.00
12219;BME280;6172;42.646;23.344;2023-05-29T12:10:28;94387.97;;;15.77;100.00
12219;BME280;6172;42.646;23.344;2023-05-29T12:12:57;94387.25;;;15.55;100.00
12219;BME280;6172;42.646;23.344;2023-05-29T12:15:25;94396.28;;;15.25;100.00
12219;BME280;6172;42.646;23.344;2023-05-29T12:17:53;94408.66;;;14.99;100.00
12219;BME280;6172;42.646;23.344;2023-05-29T12:20:22;94404.91;;;14.84;100.00
12219;BME280;6172;42.646;23.344;2023-05-29T12:22:52;94410.84;;;14.82;100.00
12219;BME280;6172;42.646;23.344;2023-05-29T12:25:20;94399.97;;;15.00;100.00
12219;BME280;6172;42.646;23.344;2023-05-29T12:27:49;94401.09;;;15.12;100.00
12219;BME280;6172;42.646;23.344;2023-05-29T12:30:20;94403.03;;;15.33;100.00
12219;BME280;6172;42.646;23.344;2023-05-29T12:32:49;94406.75;;;15.48;100.00
12219;BME280;6172;42.646;23.344;2023-05-29T12:35:18;94402.88;;;15.67;100.00
12219;BME280;6172;42.646;23.344;2023-05-29T12:37:46;94412.41;;;15.84;100.00
12219;BME280;6172;42.646;23.344;2023-05-29T12:40:17;94425.88;;;15.91;100.00
12219;BME280;6172;42.646;23.344;2023-05-29T12:42:45;94427.09;;;15.99;100.00
12219;BME280;6172;42.646;23.344;2023-05-29T12:45:14;94429.59;;;16.06;100.00
12219;BME280;6172;42.646;23.344;2023-05-29T12:47:50;94425.75;;;16.04;100.00
12219;BME280;6172;42.646;23.344;2023-05-29T12:50:23;94409.88;;;15.99;100.00
12219;BME280;6172;42.646;23.344;2023-05-29T12:52:54;94413.84;;;15.98;100.00
12219;BME280;6172;42.646;23.344;2023-05-29T12:55:21;94406.97;;;16.02;100.00
12219;BME280;6172;42.646;23.344;2023-05-29T12:57:48;94408.81;;;16.14;100.00
12219;BME280;6172;42.646;23.344;2023-05-29T13:00:17;94415.22;;;16.02;100.00
12219;BME280;6172;42.646;23.344;2023-05-29T13:02:45;94416.88;;;16.00;100.00